sensor_id;sensor_type;location;lat;lon;timestamp;pressure;altitude;pressure_sealevel;temperature;humidity
83631;BME280;73593;52.134;5.426;2023-11-19T00:00:16;100847.53;;;12.20;93.81
83631;BME280;73593;52.134;5.426;2023-11-19T00:02:45;100842.94;;;12.22;93.75
83631;BME280;73593;52.134;5.426;2023-11-19T00:05:14;100831.34;;;12.23;93.66
83631;BME280;73593;52.134;5.426;2023-11-19T00:07:43;100839.47;;;12.22;93.96
83631;BME280;73593;52.134;5.426;2023-11-19T00:10:12;100846.69;;;12.20;93.61
83631;BME280;73593;52.134;5.426;2023-11-19T00:12:43;100834.41;;;12.19;93.73
83631;BME280;73593;52.134;5.426;2023-11-19T00:15:11;100821.13;;;12.19;93.68
83631;BME280;73593;52.134;5.426;2023-11-19T00:17:42;100833.81;;;12.15;93.38
83631;BME280;73593;52.134;5.426;2023-11-19T00:20:13;100827.41;;;12.18;93.51
83631;BME280;73593;52.134;5.426;2023-11-19T00:22:41;100836.22;;;12.18;93.51
83631;BME280;73593;52.134;5.426;2023-11-19T00:25:14;100834.78;;;12.14;93.24
83631;BME280;73593;52.134;5.426;2023-11-19T00:27:40;100828.41;;;12.17;93.33
83631;BME280;73593;52.134;5.426;2023-11-19T00:30:07;100823.09;;;12.17;93.07
83631;BME280;73593;52.134;5.426;2023-11-19T00:32:39;100818.88;;;12.14;93.17
83631;BME280;73593;52.134;5.426;2023-11-19T00:35:11;100816.38;;;12.13;93.34
83631;BME280;73593;52.134;5.426;2023-11-19T00:37:38;100812.28;;;12.08;93.36
83631;BME280;73593;52.134;5.426;2023-11-19T00:40:09;100814.25;;;12.06;93.30
83631;BME280;73593;52.134;5.426;2023-11-19T00:42:37;100812.44;;;12.07;93.33
83631;BME280;73593;52.134;5.426;2023-11-19T00:45:07;100805.06;;;12.10;93.22
83631;BME280;73593;52.134;5.426;2023-11-19T00:47:41;100798.91;;;12.10;93.30
83631;BME280;73593;52.134;5.426;2023-11-19T00:50:08;100797.09;;;12.10;93.39
83631;BME280;73593;52.134;5.426;2023-11-19T00:52:39;100800.72;;;12.09;93.29
83631;BME280;73593;52.134;5.426;2023-11-19T00:55:06;100796.50;;;12.07;93.39
83631;BME280;73593;52.134;5.426;2023-11-19T00:57:34;100791.06;;;12.08;93.37
83631;BME280;73593;52.134;5.426;2023-11-19T01:00:02;100797.94;;;12.11;93.37
83631;BME280;73593;52.134;5.426;2023-11-19T01:02:35;100796.94;;;12.12;93.01
83631;BME280;73593;52.134;5.426;2023-11-19T01:05:04;100797.66;;;12.14;93.29
83631;BME280;73593;52.134;5.426;2023-11-19T01:07:31;100789.00;;;12.12;93.23
83631;BME280;73593;52.134;5.426;2023-11-19T01:10:06;100796.13;;;12.12;93.06
83631;BME280;73593;52.134;5.426;2023-11-19T01:12:34;100799.47;;;12.14;92.96
83631;BME280;73593;52.134;5.426;2023-11-19T01:15:00;100800.03;;;12.17;92.56
83631;BME280;73593;52.134;5.426;2023-11-19T01:17:29;100803.41;;;12.19;92.58
83631;BME280;73593;52.134;5.426;2023-11-19T01:20:00;100789.28;;;12.19;92.48
83631;BME280;73593;52.134;5.426;2023-11-19T01:22:27;100783.13;;;12.18;92.63
83631;BME280;73593;52.134;5.426;2023-11-19T01:24:56;100782.56;;;12.15;92.71
83631;BME280;73593;52.134;5.426;2023-11-19T01:27:27;100771.09;;;12.14;92.41
83631;BME280;73593;52.134;5.426;2023-11-19T01:29:56;100775.88;;;12.10;92.55
83631;BME280;73593;52.134;5.426;2023-11-19T01:32:22;100758.38;;;12.08;92.37
83631;BME280;73593;52.134;5.426;2023-11-19T01:34:52;100759.50;;;12.05;92.37
83631;BME280;73593;52.134;5.426;2023-11-19T01:37:21;100775.72;;;12.12;92.44
83631;BME280;73593;52.134;5.426;2023-11-19T01:39:53;100776.69;;;12.11;92.42
83631;BME280;73593;52.134;5.426;2023-11-19T01:42:22;100771.94;;;12.15;92.03
83631;BME280;73593;52.134;5.426;2023-11-19T01:44:58;100777.25;;;12.15;92.24
83631;BME280;73593;52.134;5.426;2023-11-19T01:47:30;100773.75;;;12.14;92.10
83631;BME280;73593;52.134;5.426;2023-11-19T01:49:57;100776.41;;;12.14;92.06
83631;BME280;73593;52.134;5.426;2023-11-19T01:52:26;100778.81;;;12.17;91.69
83631;BME280;73593;52.134;5.426;2023-11-19T01:54:54;100780.50;;;12.18;91.84
83631;BME280;73593;52.134;5.426;2023-11-19T01:57:23;100776.16;;;12.17;91.82
83631;BME280;73593;52.134;5.426;2023-11-19T01:59:53;100773.75;;;12.14;91.81
83631;BME280;73593;52.134;5.426;2023-11-19T02:02:20;100778.22;;;12.14;91.39
83631;BME280;73593;52.134;5.426;2023-11-19T02:04:52;100781.03;;;12.12;91.70
83631;BME280;73593;52.134;5.426;2023-11-19T02:07:19;100770.56;;;12.10;91.41
83631;BME280;73593;52.134;5.426;2023-11-19T02:09:47;100779.50;;;12.09;91.36
83631;BME280;73593;52.134;5.426;2023-11-19T02:12:16;100760.47;;;12.04;91.41
83631;BME280;73593;52.134;5.426;2023-11-19T02:14:43;100751.50;;;11.96;91.38
83631;BME280;73593;52.134;5.426;2023-11-19T02:17:30;100759.16;;;11.89;91.34
83631;BME280;73593;52.134;5.426;2023-11-19T02:19:58;100763.91;;;11.86;91.30
83631;BME280;73593;52.134;5.426;2023-11-19T02:22:28;100763.44;;;11.80;91.53
83631;BME280;73593;52.134;5.426;2023-11-19T02:25:23;100772.38;;;11.79;91.58
83631;BME280;73593;52.134;5.426;2023-11-19T02:27:58;100793.97;;;11.75;91.50
83631;BME280;73593;52.134;5.426;2023-11-19T02:30:27;100787.97;;;11.73;91.38
83631;BME280;73593;52.134;5.426;2023-11-19T02:32:57;100788.22;;;11.70;91.20
83631;BME280;73593;52.134;5.426;2023-11-19T02:35:25;100791.41;;;11.64;91.41
83631;BME280;73593;52.134;5.426;2023-11-19T02:38:00;100796.84;;;11.62;90.97
83631;BME280;73593;52.134;5.426;2023-11-19T02:40:27;100783.84;;;11.59;91.17
83631;BME280;73593;52.134;5.426;2023-11-19T02:42:56;100775.47;;;11.54;91.07
83631;BME280;73593;52.134;5.426;2023-11-19T02:45:25;100780.19;;;11.50;91.11
83631;BME280;73593;52.134;5.426;2023-11-19T02:47:54;100772.59;;;11.46;91.09
83631;BME280;73593;52.134;5.426;2023-11-19T02:50:22;100764.94;;;11.43;91.08
83631;BME280;73593;52.134;5.426;2023-11-19T02:52:57;100777.06;;;11.45;90.94
83631;BME280;73593;52.134;5.426;2023-11-19T02:55:24;100771.78;;;11.45;90.85
83631;BME280;73593;52.134;5.426;2023-11-19T02:57:59;100780.00;;;11.42;90.90
83631;BME280;73593;52.134;5.426;2023-11-19T03:00:26;100777.22;;;11.44;90.49
83631;BME280;73593;52.134;5.426;2023-11-19T03:03:03;100785.03;;;11.45;90.62
83631;BME280;73593;52.134;5.426;2023-11-19T03:05:45;100778.56;;;11.38;90.31
83631;BME280;73593;52.134;5.426;2023-11-19T03:08:14;100771.38;;;11.29;90.53
83631;BME280;73593;52.134;5.426;2023-11-19T03:10:49;100770.13;;;11.23;90.59
83631;BME280;73593;52.134;5.426;2023-11-19T03:13:16;100779.53;;;11.16;90.61
83631;BME280;73593;52.134;5.426;2023-11-19T03:15:45;100778.97;;;11.13;90.67
83631;BME280;73593;52.134;5.426;2023-11-19T03:18:12;100777.41;;;11.10;90.72
83631;BME280;73593;52.134;5.426;2023-11-19T03:20:42;100784.91;;;11.05;90.70
83631;BME280;73593;52.134;5.426;2023-11-19T03:23:09;100780.97;;;10.99;90.41
83631;BME280;73593;52.134;5.426;2023-11-19T03:25:35;100784.47;;;11.00;90.13
83631;BME280;73593;52.134;5.426;2023-11-19T03:28:04;100782.88;;;10.97;90.67
83631;BME280;73593;52.134;5.426;2023-11-19T03:30:33;100777.25;;;10.91;90.73
83631;BME280;73593;52.134;5.426;2023-11-19T03:33:00;100777.63;;;10.86;90.61
83631;BME280;73593;52.134;5.426;2023-11-19T03:35:28;100772.84;;;10.80;91.02
83631;BME280;73593;52.134;5.426;2023-11-19T03:37:54;100774.22;;;10.74;90.97
83631;BME280;73593;52.134;5.426;2023-11-19T03:40:22;100768.06;;;10.74;91.05
83631;BME280;73593;52.134;5.426;2023-11-19T03:42:51;100760.09;;;10.74;91.02
83631;BME280;73593;52.134;5.426;2023-11-19T03:45:20;100753.53;;;10.68;91.14
83631;BME280;73593;52.134;5.426;2023-11-19T03:47:47;100749.81;;;10.60;90.93
83631;BME280;73593;52.134;5.426;2023-11-19T03:50:17;100765.00;;;10.58;90.98
83631;BME280;73593;52.134;5.426;2023-11-19T03:52:47;100768.63;;;10.57;90.95
83631;BME280;73593;52.134;5.426;2023-11-19T03:55:16;100770.66;;;10.53;90.86
83631;BME280;73593;52.134;5.426;2023-11-19T03:57:45;100775.34;;;10.49;91.09
83631;BME280;73593;52.134;5.426;2023-11-19T04:00:16;100780.06;;;10.46;91.01
83631;BME280;73593;52.134;5.426;2023-11-19T04:02:42;100777.66;;;10.43;91.14
83631;BME280;73593;52.134;5.426;2023-11-19T04:05:11;100786.72;;;10.40;91.07
83631;BME280;73593;52.134;5.426;2023-11-19T04:07:43;100785.03;;;10.39;91.10
83631;BME280;73593;52.134;5.426;2023-11-19T04:10:12;100786.09;;;10.37;90.98
83631;BME280;73593;52.134;5.426;2023-11-19T04:12:38;100790.56;;;10.36;90.79
83631;BME280;73593;52.134;5.426;2023-11-19T04:15:06;100787.91;;;10.36;91.12
83631;BME280;73593;52.134;5.426;2023-11-19T04:17:32;100787.06;;;10.36;90.84
83631;BME280;73593;52.134;5.426;2023-11-19T04:20:02;100795.97;;;10.35;90.98
83631;BME280;73593;52.134;5.426;2023-11-19T04:22:31;100784.56;;;10.34;90.59
83631;BME280;73593;52.134;5.426;2023-11-19T04:24:57;100788.31;;;10.32;90.84
83631;BME280;73593;52.134;5.426;2023-11-19T04:27:24;100799.72;;;10.32;90.46
83631;BME280;73593;52.134;5.426;2023-11-19T04:29:51;100796.25;;;10.32;91.26
83631;BME280;73593;52.134;5.426;2023-11-19T04:32:18;100789.97;;;10.33;90.76
83631;BME280;73593;52.134;5.426;2023-11-19T04:34:50;100784.06;;;10.29;90.67
83631;BME280;73593;52.134;5.426;2023-11-19T04:37:16;100793.13;;;10.27;90.51
83631;BME280;73593;52.134;5.426;2023-11-19T04:39:46;100786.00;;;10.27;90.89
83631;BME280;73593;52.134;5.426;2023-11-19T04:42:13;100786.97;;;10.26;90.71
83631;BME280;73593;52.134;5.426;2023-11-19T04:44:46;100795.16;;;10.23;90.73
83631;BME280;73593;52.134;5.426;2023-11-19T04:47:15;100800.66;;;10.20;90.65
83631;BME280;73593;52.134;5.426;2023-11-19T04:49:49;100799.94;;;10.18;90.30
83631;BME280;73593;52.134;5.426;2023-11-19T04:52:20;100794.53;;;10.19;90.72
83631;BME280;73593;52.134;5.426;2023-11-19T04:54:49;100791.28;;;10.16;90.60
83631;BME280;73593;52.134;5.426;2023-11-19T04:57:15;100782.63;;;10.14;90.66
83631;BME280;73593;52.134;5.426;2023-11-19T04:59:45;100782.16;;;10.09;90.54
83631;BME280;73593;52.134;5.426;2023-11-19T05:02:12;100780.59;;;10.06;90.61
83631;BME280;73593;52.134;5.426;2023-11-19T05:04:42;100787.59;;;10.07;90.59
83631;BME280;73593;52.134;5.426;2023-11-19T05:07:10;100794.78;;;10.05;90.55
83631;BME280;73593;52.134;5.426;2023-11-19T05:09:39;100799.34;;;10.03;90.50
83631;BME280;73593;52.134;5.426;2023-11-19T05:12:06;100795.88;;;10.03;90.33
83631;BME280;73593;52.134;5.426;2023-11-19T05:14:38;100809.81;;;10.05;90.47
83631;BME280;73593;52.134;5.426;2023-11-19T05:17:04;100810.66;;;10.05;90.64
83631;BME280;73593;52.134;5.426;2023-11-19T05:19:31;100821.34;;;10.04;90.11
83631;BME280;73593;52.134;5.426;2023-11-19T05:22:02;100804.03;;;10.00;90.20
83631;BME280;73593;52.134;5.426;2023-11-19T05:24:31;100790.22;;;9.96;90.21
83631;BME280;73593;52.134;5.426;2023-11-19T05:26:57;100786.97;;;9.92;90.46
83631;BME280;73593;52.134;5.426;2023-11-19T05:29:24;100794.31;;;9.89;90.17
83631;BME280;73593;52.134;5.426;2023-11-19T05:31:51;100798.78;;;9.88;90.48
83631;BME280;73593;52.134;5.426;2023-11-19T05:34:21;100799.97;;;9.84;90.43
83631;BME280;73593;52.134;5.426;2023-11-19T05:36:47;100797.31;;;9.84;90.01
83631;BME280;73593;52.134;5.426;2023-11-19T05:39:14;100798.88;;;9.87;90.17
83631;BME280;73593;52.134;5.426;2023-11-19T05:41:41;100793.72;;;9.85;89.92
83631;BME280;73593;52.134;5.426;2023-11-19T05:44:10;100805.38;;;9.83;89.78
83631;BME280;73593;52.134;5.426;2023-11-19T05:46:36;100804.53;;;9.82;89.84
83631;BME280;73593;52.134;5.426;2023-11-19T05:49:10;100803.78;;;9.80;89.86
83631;BME280;73593;52.134;5.426;2023-11-19T05:51:40;100799.25;;;9.82;89.68
83631;BME280;73593;52.134;5.426;2023-11-19T05:54:08;100798.38;;;9.82;89.86
83631;BME280;73593;52.134;5.426;2023-11-19T05:56:37;100796.97;;;9.78;89.90
83631;BME280;73593;52.134;5.426;2023-11-19T05:59:06;100813.03;;;9.75;89.88
83631;BME280;73593;52.134;5.426;2023-11-19T06:01:41;100804.16;;;9.76;90.09
83631;BME280;73593;52.134;5.426;2023-11-19T06:04:10;100804.75;;;9.79;90.05
83631;BME280;73593;52.134;5.426;2023-11-19T06:06:39;100797.94;;;9.77;89.92
83631;BME280;73593;52.134;5.426;2023-11-19T06:09:29;100792.63;;;9.77;90.20
83631;BME280;73593;52.134;5.426;2023-11-19T06:11:56;100802.00;;;9.81;89.99
83631;BME280;73593;52.134;5.426;2023-11-19T06:14:23;100793.00;;;9.83;89.72
83631;BME280;73593;52.134;5.426;2023-11-19T06:16:51;100793.09;;;9.82;90.13
83631;BME280;73593;52.134;5.426;2023-11-19T06:19:18;100802.13;;;9.79;90.10
83631;BME280;73593;52.134;5.426;2023-11-19T06:21:44;100801.28;;;9.79;90.10
83631;BME280;73593;52.134;5.426;2023-11-19T06:24:11;100808.50;;;9.77;89.86
83631;BME280;73593;52.134;5.426;2023-11-19T06:26:40;100808.59;;;9.75;89.92
83631;BME280;73593;52.134;5.426;2023-11-19T06:29:06;100807.16;;;9.71;90.19
83631;BME280;73593;52.134;5.426;2023-11-19T06:31:33;100807.16;;;9.71;89.87
83631;BME280;73593;52.134;5.426;2023-11-19T06:34:03;100810.53;;;9.73;90.08
83631;BME280;73593;52.134;5.426;2023-11-19T06:36:30;100814.34;;;9.69;90.05
83631;BME280;73593;52.134;5.426;2023-11-19T06:38:56;100823.25;;;9.68;89.82
83631;BME280;73593;52.134;5.426;2023-11-19T06:41:26;100818.94;;;9.67;90.07
83631;BME280;73593;52.134;5.426;2023-11-19T06:43:56;100818.22;;;9.65;89.97
83631;BME280;73593;52.134;5.426;2023-11-19T06:46:23;100820.13;;;9.63;90.12
83631;BME280;73593;52.134;5.426;2023-11-19T06:48:50;100826.16;;;9.65;90.07
83631;BME280;73593;52.134;5.426;2023-11-19T06:51:16;100836.59;;;9.66;90.04
83631;BME280;73593;52.134;5.426;2023-11-19T06:53:43;100834.91;;;9.65;89.65
83631;BME280;73593;52.134;5.426;2023-11-19T06:56:38;100830.47;;;9.66;90.01
83631;BME280;73593;52.134;5.426;2023-11-19T06:59:05;100832.88;;;9.69;89.91
83631;BME280;73593;52.134;5.426;2023-11-19T07:01:36;100838.28;;;9.67;89.89
83631;BME280;73593;52.134;5.426;2023-11-19T07:04:03;100836.25;;;9.71;89.94
83631;BME280;73593;52.134;5.426;2023-11-19T07:06:35;100839.94;;;9.68;89.87
83631;BME280;73593;52.134;5.426;2023-11-19T07:09:02;100843.44;;;9.69;89.76
83631;BME280;73593;52.134;5.426;2023-11-19T07:11:39;100840.56;;;9.72;89.78
83631;BME280;73593;52.134;5.426;2023-11-19T07:14:09;100844.19;;;9.71;89.82
83631;BME280;73593;52.134;5.426;2023-11-19T07:16:36;100845.50;;;9.65;89.81
83631;BME280;73593;52.134;5.426;2023-11-19T07:19:04;100851.63;;;9.66;89.87
83631;BME280;73593;52.134;5.426;2023-11-19T07:21:35;100848.13;;;9.65;89.92
83631;BME280;73593;52.134;5.426;2023-11-19T07:24:08;100853.91;;;9.71;89.79
83631;BME280;73593;52.134;5.426;2023-11-19T07:26:43;100859.56;;;9.77;89.59
83631;BME280;73593;52.134;5.426;2023-11-19T07:29:12;100857.63;;;9.79;89.83
83631;BME280;73593;52.134;5.426;2023-11-19T07:31:38;100864.47;;;9.82;90.14
83631;BME280;73593;52.134;5.426;2023-11-19T07:34:07;100867.88;;;9.84;89.75
83631;BME280;73593;52.134;5.426;2023-11-19T07:36:35;100875.56;;;9.87;89.14
83631;BME280;73593;52.134;5.426;2023-11-19T07:39:03;100866.19;;;9.83;89.41
83631;BME280;73593;52.134;5.426;2023-11-19T07:41:31;100868.94;;;9.81;89.34
83631;BME280;73593;52.134;5.426;2023-11-19T07:43:58;100869.78;;;9.82;89.36
83631;BME280;73593;52.134;5.426;2023-11-19T07:46:25;100870.63;;;9.82;89.34
83631;BME280;73593;52.134;5.426;2023-11-19T07:48:54;100867.25;;;9.80;89.51
83631;BME280;73593;52.134;5.426;2023-11-19T07:51:23;100869.78;;;9.82;89.41
83631;BME280;73593;52.134;5.426;2023-11-19T07:53:53;100870.50;;;9.84;89.55
83631;BME280;73593;52.134;5.426;2023-11-19T07:56:19;100871.84;;;9.89;89.42
83631;BME280;73593;52.134;5.426;2023-11-19T07:58:48;100867.97;;;9.93;89.24
83631;BME280;73593;52.134;5.426;2023-11-19T08:01:15;100860.16;;;9.92;89.42
83631;BME280;73593;52.134;5.426;2023-11-19T08:03:42;100864.75;;;9.90;89.75
83631;BME280;73593;52.134;5.426;2023-11-19T08:06:27;100862.69;;;9.93;89.42
83631;BME280;73593;52.134;5.426;2023-11-19T08:08:55;100866.44;;;9.91;89.41
83631;BME280;73593;52.134;5.426;2023-11-19T08:11:28;100871.47;;;9.94;89.56
83631;BME280;73593;52.134;5.426;2023-11-19T08:13:57;100863.44;;;9.95;89.31
83631;BME280;73593;52.134;5.426;2023-11-19T08:16:26;100866.06;;;9.95;89.47
83631;BME280;73593;52.134;5.426;2023-11-19T08:18:58;100867.13;;;9.93;89.59
83631;BME280;73593;52.134;5.426;2023-11-19T08:21:24;100872.44;;;9.93;89.55
83631;BME280;73593;52.134;5.426;2023-11-19T08:23:53;100868.47;;;9.99;89.81
83631;BME280;73593;52.134;5.426;2023-11-19T08:26:20;100860.31;;;10.02;89.72
83631;BME280;73593;52.134;5.426;2023-11-19T08:28:47;100855.13;;;10.00;89.85
83631;BME280;73593;52.134;5.426;2023-11-19T08:31:14;100862.00;;;10.03;89.67
83631;BME280;73593;52.134;5.426;2023-11-19T08:33:40;100869.66;;;10.06;89.96
83631;BME280;73593;52.134;5.426;2023-11-19T08:36:15;100875.31;;;10.12;89.66
83631;BME280;73593;52.134;5.426;2023-11-19T08:38:44;100873.41;;;10.14;89.47
83631;BME280;73593;52.134;5.426;2023-11-19T08:41:11;100874.13;;;10.16;89.20
83631;BME280;73593;52.134;5.426;2023-11-19T08:43:38;100876.09;;;10.26;89.38
83631;BME280;73593;52.134;5.426;2023-11-19T08:46:14;100872.34;;;10.28;89.02
83631;BME280;73593;52.134;5.426;2023-11-19T08:48:43;100883.78;;;10.29;89.05
83631;BME280;73593;52.134;5.426;2023-11-19T08:51:10;100888.47;;;10.36;88.87
83631;BME280;73593;52.134;5.426;2023-11-19T08:53:36;100887.03;;;10.43;88.85
83631;BME280;73593;52.134;5.426;2023-11-19T08:56:03;100887.50;;;10.48;88.66
83631;BME280;73593;52.134;5.426;2023-11-19T08:58:30;100886.28;;;10.53;88.42
83631;BME280;73593;52.134;5.426;2023-11-19T09:01:00;100883.50;;;10.54;88.22
83631;BME280;73593;52.134;5.426;2023-11-19T09:03:27;100885.53;;;10.62;88.20
83631;BME280;73593;52.134;5.426;2023-11-19T09:05:53;100884.94;;;10.69;87.69
83631;BME280;73593;52.134;5.426;2023-11-19T09:08:21;100884.47;;;10.75;87.54
83631;BME280;73593;52.134;5.426;2023-11-19T09:10:50;100881.31;;;10.82;87.52
83631;BME280;73593;52.134;5.426;2023-11-19T09:13:17;100882.63;;;10.87;86.62
83631;BME280;73593;52.134;5.426;2023-11-19T09:15:44;100878.16;;;10.88;86.82
83631;BME280;73593;52.134;5.426;2023-11-19T09:18:10;100873.56;;;10.90;86.63
83631;BME280;73593;52.134;5.426;2023-11-19T09:20:37;100884.66;;;10.95;86.54
83631;BME280;73593;52.134;5.426;2023-11-19T09:23:08;100881.03;;;10.96;86.66
83631;BME280;73593;52.134;5.426;2023-11-19T09:25:35;100884.66;;;10.95;86.38
83631;BME280;73593;52.134;5.426;2023-11-19T09:28:07;100881.88;;;10.96;86.20
83631;BME280;73593;52.134;5.426;2023-11-19T09:30:35;100875.59;;;10.97;86.61
83631;BME280;73593;52.134;5.426;2023-11-19T09:33:01;100878.00;;;11.00;86.16
83631;BME280;73593;52.134;5.426;2023-11-19T09:35:31;100877.75;;;11.03;85.98
83631;BME280;73593;52.134;5.426;2023-11-19T09:38:00;100878.34;;;11.07;86.11
83631;BME280;73593;52.134;5.426;2023-11-19T09:40:29;100880.84;;;11.09;86.18
83631;BME280;73593;52.134;5.426;2023-11-19T09:42:58;100877.97;;;11.12;85.92
83631;BME280;73593;52.134;5.426;2023-11-19T09:45:27;100871.44;;;11.16;85.65
83631;BME280;73593;52.134;5.426;2023-11-19T09:47:57;100870.47;;;11.17;85.80
83631;BME280;73593;52.134;5.426;2023-11-19T09:50:26;100869.38;;;11.19;85.15
83631;BME280;73593;52.134;5.426;2023-11-19T09:52:53;100879.00;;;11.20;85.31
83631;BME280;73593;52.134;5.426;2023-11-19T09:55:22;100866.47;;;11.22;85.18
83631;BME280;73593;52.134;5.426;2023-11-19T09:57:51;100859.25;;;11.24;85.44
83631;BME280;73593;52.134;5.426;2023-11-19T10:00:20;100865.13;;;11.28;84.96
83631;BME280;73593;52.134;5.426;2023-11-19T10:02:48;100863.19;;;11.30;85.18
83631;BME280;73593;52.134;5.426;2023-11-19T10:05:19;100865.56;;;11.33;85.05
83631;BME280;73593;52.134;5.426;2023-11-19T10:07:47;100862.56;;;11.38;84.77
83631;BME280;73593;52.134;5.426;2023-11-19T10:10:16;100849.75;;;11.43;84.52
83631;BME280;73593;52.134;5.426;2023-11-19T10:12:50;100857.44;;;11.46;84.12
83631;BME280;73593;52.134;5.426;2023-11-19T10:15:25;100838.22;;;11.53;84.48
83631;BME280;73593;52.134;5.426;2023-11-19T10:17:57;100847.59;;;11.57;84.53
83631;BME280;73593;52.134;5.426;2023-11-19T10:20:24;100851.56;;;11.63;84.28
83631;BME280;73593;52.134;5.426;2023-11-19T10:22:55;100849.34;;;11.68;83.46
83631;BME280;73593;52.134;5.426;2023-11-19T10:25:28;100847.59;;;11.78;83.35
83631;BME280;73593;52.134;5.426;2023-11-19T10:27:56;100839.72;;;11.88;82.71
83631;BME280;73593;52.134;5.426;2023-11-19T10:30:24;100835.84;;;11.92;82.59
83631;BME280;73593;52.134;5.426;2023-11-19T10:33:06;100826.94;;;12.03;82.31
83631;BME280;73593;52.134;5.426;2023-11-19T10:35:51;100839.28;;;12.14;82.17
83631;BME280;73593;52.134;5.426;2023-11-19T10:38:26;100843.06;;;12.21;82.30
83631;BME280;73593;52.134;5.426;2023-11-19T10:40:55;100828.13;;;12.20;81.44
83631;BME280;73593;52.134;5.426;2023-11-19T10:43:25;100836.22;;;12.18;81.17
83631;BME280;73593;52.134;5.426;2023-11-19T10:46:12;100849.50;;;12.18;81.01
83631;BME280;73593;52.134;5.426;2023-11-19T10:48:47;100836.66;;;12.23;81.16
83631;BME280;73593;52.134;5.426;2023-11-19T10:51:18;100830.97;;;12.28;80.78
83631;BME280;73593;52.134;5.426;2023-11-19T10:53:51;100829.88;;;12.40;81.04
83631;BME280;73593;52.134;5.426;2023-11-19T10:56:20;100838.13;;;12.47;80.48
83631;BME280;73593;52.134;5.426;2023-11-19T10:58:53;100837.44;;;12.54;80.23
83631;BME280;73593;52.134;5.426;2023-11-19T11:01:23;100830.19;;;12.56;80.17
83631;BME280;73593;52.134;5.426;2023-11-19T11:03:53;100836.75;;;12.52;79.62
83631;BME280;73593;52.134;5.426;2023-11-19T11:06:23;100823.88;;;12.48;80.05
83631;BME280;73593;52.134;5.426;2023-11-19T11:08:51;100837.41;;;12.45;79.99
83631;BME280;73593;52.134;5.426;2023-11-19T11:11:20;100842.28;;;12.40;80.18
83631;BME280;73593;52.134;5.426;2023-11-19T11:13:52;100848.56;;;12.38;80.13
83631;BME280;73593;52.134;5.426;2023-11-19T11:16:21;100833.75;;;12.36;80.43
83631;BME280;73593;52.134;5.426;2023-11-19T11:18:49;100842.28;;;12.40;79.44
83631;BME280;73593;52.134;5.426;2023-11-19T11:21:21;100848.63;;;12.48;79.37
83631;BME280;73593;52.134;5.426;2023-11-19T11:29:05;100824.31;;;12.53;79.31
83631;BME280;73593;52.134;5.426;2023-11-19T11:39:35;100832.56;;;12.59;79.10
83631;BME280;73593;52.134;5.426;2023-11-19T11:57:58;100824.31;;;12.53;79.80
83631;BME280;73593;52.134;5.426;2023-11-19T12:00:38;100814.66;;;12.52;79.48
83631;BME280;73593;52.134;5.426;2023-11-19T12:03:06;100812.13;;;12.50;79.60
83631;BME280;73593;52.134;5.426;2023-11-19T12:05:38;100811.16;;;12.51;79.04
83631;BME280;73593;52.134;5.426;2023-11-19T12:08:06;100813.94;;;12.50;78.88
83631;BME280;73593;52.134;5.426;2023-11-19T12:10:53;100803.72;;;12.45;78.91
83631;BME280;73593;52.134;5.426;2023-11-19T12:13:23;100800.53;;;12.42;79.40
83631;BME280;73593;52.134;5.426;2023-11-19T12:18:23;100801.91;;;12.36;79.10
83631;BME280;73593;52.134;5.426;2023-11-19T12:20:51;100791.97;;;12.38;79.10
83631;BME280;73593;52.134;5.426;2023-11-19T12:23:18;100793.84;;;12.47;78.95
83631;BME280;73593;52.134;5.426;2023-11-19T12:25:47;100789.38;;;12.48;78.83
83631;BME280;73593;52.134;5.426;2023-11-19T12:28:15;100799.41;;;12.44;78.92
83631;BME280;73593;52.134;5.426;2023-11-19T12:30:45;100800.53;;;12.42;79.02
83631;BME280;73593;52.134;5.426;2023-11-19T12:33:14;100804.16;;;12.41;79.22
83631;BME280;73593;52.134;5.426;2023-11-19T12:35:44;100811.69;;;12.35;79.68
83631;BME280;73593;52.134;5.426;2023-11-19T12:38:21;100799.66;;;12.31;79.56
83631;BME280;73593;52.134;5.426;2023-11-19T12:41:08;100806.09;;;12.29;79.45
83631;BME280;73593;52.134;5.426;2023-11-19T12:43:40;100799.34;;;12.25;79.50
83631;BME280;73593;52.134;5.426;2023-11-19T12:46:36;100806.50;;;12.24;80.16
83631;BME280;73593;52.134;5.426;2023-11-19T12:49:05;100810.66;;;12.27;79.83
83631;BME280;73593;52.134;5.426;2023-11-19T12:51:35;100800.91;;;12.27;79.81
83631;BME280;73593;52.134;5.426;2023-11-19T12:54:07;100801.88;;;12.26;79.19
83631;BME280;73593;52.134;5.426;2023-11-19T12:56:34;100814.31;;;12.26;79.49
83631;BME280;73593;52.134;5.426;2023-11-19T12:59:12;100804.53;;;12.26;79.61
83631;BME280;73593;52.134;5.426;2023-11-19T13:01:39;100807.06;;;12.28;79.06
83631;BME280;73593;52.134;5.426;2023-11-19T13:04:22;100811.41;;;12.29;78.83
83631;BME280;73593;52.134;5.426;2023-11-19T13:06:49;100797.97;;;12.30;78.75
83631;BME280;73593;52.134;5.426;2023-11-19T13:09:26;100803.28;;;12.30;78.65
83631;BME280;73593;52.134;5.426;2023-11-19T13:11:55;100803.53;;;12.27;78.89
83631;BME280;73593;52.134;5.426;2023-11-19T13:14:36;100796.56;;;12.26;78.81
83631;BME280;73593;52.134;5.426;2023-11-19T13:17:07;100796.84;;;12.23;79.53
83631;BME280;73593;52.134;5.426;2023-11-19T13:19:37;100790.97;;;12.20;79.85
83631;BME280;73593;52.134;5.426;2023-11-19T13:22:06;100791.25;;;12.17;80.09
83631;BME280;73593;52.134;5.426;2023-11-19T13:24:34;100786.19;;;12.14;80.18
83631;BME280;73593;52.134;5.426;2023-11-19T13:27:03;100802.41;;;12.10;80.78
83631;BME280;73593;52.134;5.426;2023-11-19T13:29:32;100791.34;;;12.05;81.35
83631;BME280;73593;52.134;5.426;2023-11-19T13:32:00;100787.56;;;11.98;81.59
83631;BME280;73593;52.134;5.426;2023-11-19T13:34:27;100791.28;;;11.96;82.16
83631;BME280;73593;52.134;5.426;2023-11-19T13:36:54;100792.41;;;11.93;82.29